Thunder radar more information blitzortung!


Radar de pluja more information rain snow radar


Visita la nostra xarxa de llocs de meteo:

Template documentation
and downloads

And another site



No particular awareness of the weather is required.    There are no Weather-warnings

Pagina Historial Weather Underground text

Diari Resum May 6, 2017 Unitats:  Mètric    Imperial   Tant
« Previous Dia
SegĂźent Dia »
Diari Setmana Mensual Anual Personalitzada
  Maxima: Minima: Media:
Temperatura: 25.9 °C 11.6 °C 20.4 °C
Punt de rosada: 9.5 °C 1.0 °C 6.4 °C
Humitat: 69 % 22 % 43 %
Wind Speed: 25.9 km/h 0.0 km/h 9.7 km/h
RĂ fegues de vent: 25.9 km/h - -
Vent:- - SSW
Pression baro: 1019.9 hPa 1010.0 hPa -
Precipitacions: 0.0 mm    
Historical Graphs
 
 
Dades de taula per May 6, 2017
Temps Temperatura Punt de rosada Pression baro Vent Wind Speed RĂ fegues de vent Humitat Rainfall Rate (Hourly)
00:04 16.0 °C 6.9 °C 1010.7 hPa East 5.6 km/h 5.6 km/h 55 % 0.0 mm
00:05 13.9 °C 7.7 °C 1010.0 hPa WSW 4.8 km/h 6.4 km/h 66 % 0.0 mm
00:15 14.3 °C 8.1 °C 1010.0 hPa West 9.7 km/h 17.7 km/h 66 % 0.0 mm
00:25 14.4 °C 7.9 °C 1010.0 hPa WSW 4.8 km/h 8.0 km/h 65 % 0.0 mm
00:35 14.4 °C 7.9 °C 1010.0 hPa West 1.6 km/h 8.0 km/h 65 % 0.0 mm
00:45 14.3 °C 7.8 °C 1010.0 hPa West 3.2 km/h 4.8 km/h 65 % 0.0 mm
00:55 14.3 °C 7.8 °C 1010.0 hPa WSW 4.8 km/h 6.4 km/h 65 % 0.0 mm
01:05 14.4 °C 8.1 °C 1010.0 hPa WSW 1.6 km/h 3.2 km/h 66 % 0.0 mm
01:15 14.5 °C 8.2 °C 1010.0 hPa WSW 3.2 km/h 6.4 km/h 66 % 0.0 mm
01:25 14.6 °C 8.6 °C 1010.0 hPa WSW 3.2 km/h 9.7 km/h 67 % 0.0 mm
01:35 14.7 °C 8.8 °C 1010.0 hPa WSW 9.7 km/h 11.3 km/h 68 % 0.0 mm
01:45 14.8 °C 8.9 °C 1010.0 hPa WSW 3.2 km/h 8.0 km/h 68 % 0.0 mm
01:55 14.6 °C 8.8 °C 1010.0 hPa WSW 3.2 km/h 4.8 km/h 68 % 0.0 mm
02:05 14.4 °C 8.6 °C 1010.0 hPa WSW 3.2 km/h 3.2 km/h 68 % 0.0 mm
02:15 14.3 °C 8.4 °C 1010.0 hPa SW 3.2 km/h 6.4 km/h 68 % 0.0 mm
02:25 14.6 °C 8.6 °C 1010.0 hPa WSW 3.2 km/h 6.4 km/h 67 % 0.0 mm
02:35 14.9 °C 8.6 °C 1010.0 hPa West 4.8 km/h 6.4 km/h 66 % 0.0 mm
02:45 15.0 °C 8.4 °C 1010.0 hPa West 4.8 km/h 14.5 km/h 65 % 0.0 mm
02:55 15.2 °C 8.7 °C 1010.0 hPa West 8.0 km/h 8.0 km/h 65 % 0.0 mm
03:05 15.2 °C 8.4 °C 1010.7 hPa West 4.8 km/h 12.9 km/h 64 % 0.0 mm
03:15 15.3 °C 8.5 °C 1010.7 hPa West 4.8 km/h 4.8 km/h 64 % 0.0 mm
03:25 15.5 °C 8.7 °C 1010.7 hPa WSW 4.8 km/h 6.4 km/h 64 % 0.0 mm
03:35 16.0 °C 9.2 °C 1010.7 hPa WNW 3.2 km/h 4.8 km/h 64 % 0.0 mm
03:45 16.0 °C 8.9 °C 1010.7 hPa WNW 4.8 km/h 12.9 km/h 63 % 0.0 mm
03:55 16.2 °C 8.9 °C 1011.7 hPa West 8.0 km/h 9.7 km/h 62 % 0.0 mm
04:05 16.8 °C 9.5 °C 1011.7 hPa West 4.8 km/h 6.4 km/h 62 % 0.0 mm
04:15 17.1 °C 9.5 °C 1011.7 hPa WSW 4.8 km/h 6.4 km/h 61 % 0.0 mm
04:25 17.4 °C 9.3 °C 1011.7 hPa SW 4.8 km/h 8.0 km/h 59 % 0.0 mm
04:35 17.1 °C 8.0 °C 1011.7 hPa West 11.3 km/h 11.3 km/h 55 % 0.0 mm
04:45 17.3 °C 7.9 °C 1011.7 hPa West 4.8 km/h 9.7 km/h 54 % 0.0 mm
04:55 17.3 °C 7.6 °C 1011.7 hPa WSW 9.7 km/h 11.3 km/h 53 % 0.0 mm
05:05 17.5 °C 7.6 °C 1011.7 hPa WSW 9.7 km/h 17.7 km/h 52 % 0.0 mm
05:15 18.0 °C 7.7 °C 1011.7 hPa West 8.0 km/h 17.7 km/h 51 % 0.0 mm
05:25 18.3 °C 7.7 °C 1011.7 hPa West 9.7 km/h 16.1 km/h 50 % 0.0 mm
05:35 18.8 °C 8.2 °C 1012.8 hPa West 8.0 km/h 12.9 km/h 50 % 0.0 mm
05:45 19.4 °C 8.4 °C 1012.8 hPa West 4.8 km/h 9.7 km/h 49 % 0.0 mm
05:55 19.8 °C 8.4 °C 1012.8 hPa WSW 8.0 km/h 9.7 km/h 48 % 0.0 mm
06:05 20.2 °C 8.5 °C 1012.8 hPa West 3.2 km/h 16.1 km/h 47 % 0.0 mm
11:10 20.1 °C 7.8 °C 1012.8 hPa NW 9.5 km/h 9.5 km/h 45 % 0.0 mm
11:15 20.1 °C 7.4 °C 1013.8 hPa WSW 11.1 km/h 11.1 km/h 44 % 0.0 mm
11:20 20.4 °C 7.7 °C 1013.8 hPa WNW 9.3 km/h 9.3 km/h 44 % 0.0 mm
11:25 20.5 °C 7.5 °C 1013.8 hPa SSW 11.1 km/h 11.1 km/h 43 % 0.0 mm
11:31 20.7 °C 7.3 °C 1012.8 hPa WSW 9.3 km/h 9.3 km/h 42 % 0.0 mm
11:36 20.9 °C 7.8 °C 1012.8 hPa WSW 9.3 km/h 9.3 km/h 43 % 0.0 mm
11:41 20.9 °C 7.5 °C 1013.8 hPa West 9.3 km/h 9.3 km/h 42 % 0.0 mm
11:46 21.5 °C 8.1 °C 1013.8 hPa WNW 12.2 km/h 12.2 km/h 42 % 0.0 mm
11:51 21.2 °C 7.4 °C 1013.8 hPa SW 15.1 km/h 15.1 km/h 41 % 0.0 mm
11:56 21.2 °C 7.1 °C 1013.8 hPa SW 10.3 km/h 10.3 km/h 40 % 0.0 mm
12:01 21.6 °C 7.8 °C 1013.8 hPa ENE 7.4 km/h 7.4 km/h 41 % 0.0 mm
12:06 21.5 °C 7.3 °C 1013.8 hPa WSW 20.4 km/h 20.4 km/h 40 % 0.0 mm
12:11 21.8 °C 7.6 °C 1013.8 hPa NW 13.0 km/h 13.0 km/h 40 % 0.0 mm
12:16 21.9 °C 7.7 °C 1013.8 hPa SSW 11.1 km/h 11.1 km/h 40 % 0.0 mm
12:21 21.8 °C 7.6 °C 1013.8 hPa East 9.3 km/h 9.3 km/h 40 % 0.0 mm
12:26 22.0 °C 7.8 °C 1013.8 hPa NW 13.0 km/h 13.0 km/h 40 % 0.0 mm
12:31 21.9 °C 7.3 °C 1013.8 hPa WSW 11.1 km/h 11.4 km/h 39 % 0.0 mm
12:36 21.9 °C 7.3 °C 1013.8 hPa West 14.0 km/h 14.0 km/h 39 % 0.0 mm
12:41 21.9 °C 7.3 °C 1013.8 hPa West 13.0 km/h 13.0 km/h 39 % 0.0 mm
12:46 22.1 °C 7.5 °C 1013.8 hPa WNW 14.8 km/h 14.8 km/h 39 % 0.0 mm
12:51 22.1 °C 7.5 °C 1013.8 hPa West 14.8 km/h 14.8 km/h 39 % 0.0 mm
12:56 22.1 °C 7.1 °C 1012.8 hPa West 20.4 km/h 20.4 km/h 38 % 0.0 mm
13:01 22.2 °C 7.2 °C 1012.8 hPa WSW 13.7 km/h 13.7 km/h 38 % 0.0 mm
13:06 22.4 °C 7.4 °C 1012.8 hPa NNW 18.0 km/h 18.0 km/h 38 % 0.0 mm
13:11 22.0 °C 6.2 °C 1013.8 hPa WNW 13.0 km/h 13.0 km/h 36 % 0.0 mm
13:16 22.1 °C 6.7 °C 1013.8 hPa SW 16.1 km/h 16.1 km/h 37 % 0.0 mm
13:21 22.2 °C 6.8 °C 1013.8 hPa WSW 13.0 km/h 13.0 km/h 37 % 0.0 mm
13:26 22.3 °C 6.9 °C 1013.8 hPa WSW 16.7 km/h 16.7 km/h 37 % 0.0 mm
13:31 22.5 °C 7.1 °C 1013.8 hPa SW 9.7 km/h 9.7 km/h 37 % 0.0 mm
13:36 23.0 °C 7.1 °C 1013.8 hPa West 13.0 km/h 13.0 km/h 36 % 0.0 mm
13:41 22.9 °C 7.4 °C 1013.8 hPa SW 11.1 km/h 11.1 km/h 37 % 0.0 mm
13:46 23.3 °C 7.4 °C 1013.8 hPa West 9.3 km/h 9.3 km/h 36 % 0.0 mm
13:51 23.4 °C 7.5 °C 1013.8 hPa WNW 16.7 km/h 16.7 km/h 36 % 0.0 mm
13:56 23.4 °C 7.1 °C 1013.8 hPa WSW 14.8 km/h 14.8 km/h 35 % 0.0 mm
14:01 23.5 °C 7.2 °C 1013.8 hPa WSW 13.0 km/h 13.0 km/h 35 % 0.0 mm
14:06 23.6 °C 7.2 °C 1013.8 hPa South 13.0 km/h 13.0 km/h 35 % 0.0 mm
14:11 23.7 °C 6.9 °C 1013.8 hPa WSW 13.0 km/h 13.0 km/h 34 % 0.0 mm
14:16 23.6 °C 6.8 °C 1013.8 hPa WSW 15.8 km/h 15.8 km/h 34 % 0.0 mm
14:21 23.9 °C 7.5 °C 1013.8 hPa WNW 13.0 km/h 13.0 km/h 35 % 0.0 mm
14:26 23.6 °C 6.4 °C 1012.8 hPa WSW 20.4 km/h 20.4 km/h 33 % 0.0 mm
14:31 24.2 °C 7.3 °C 1012.8 hPa WSW 9.3 km/h 9.3 km/h 34 % 0.0 mm
14:36 24.1 °C 6.8 °C 1012.8 hPa West 13.0 km/h 13.0 km/h 33 % 0.0 mm
14:41 23.8 °C 6.6 °C 1013.8 hPa WSW 18.5 km/h 18.5 km/h 33 % 0.0 mm
14:46 24.1 °C 6.4 °C 1013.8 hPa WSW 16.7 km/h 16.7 km/h 32 % 0.0 mm
14:51 24.4 °C 7.1 °C 1013.8 hPa West 9.3 km/h 9.3 km/h 33 % 0.0 mm
14:56 24.7 °C 6.9 °C 1013.8 hPa WSW 16.7 km/h 16.7 km/h 32 % 0.0 mm
15:01 24.6 °C 6.8 °C 1013.8 hPa West 16.9 km/h 16.9 km/h 32 % 0.0 mm
15:06 24.7 °C 6.9 °C 1013.8 hPa WSW 16.9 km/h 16.9 km/h 32 % 0.0 mm
15:11 24.4 °C 6.2 °C 1013.8 hPa West 13.0 km/h 13.0 km/h 31 % 0.0 mm
15:16 24.7 °C 6.9 °C 1013.8 hPa WSW 14.8 km/h 14.8 km/h 32 % 0.0 mm
15:21 24.8 °C 7.0 °C 1013.8 hPa West 13.0 km/h 13.0 km/h 32 % 0.0 mm
15:22 24.9 °C 7.1 °C 1013.8 hPa WSW 13.0 km/h 13.0 km/h 32 % 0.0 mm
15:27 24.8 °C 6.5 °C 1013.8 hPa WSW 16.7 km/h 16.7 km/h 31 % 0.0 mm
15:32 24.6 °C 5.9 °C 1013.8 hPa WSW 13.0 km/h 13.0 km/h 30 % 0.0 mm
15:37 24.6 °C 5.9 °C 1013.8 hPa SW 11.1 km/h 11.1 km/h 30 % 0.0 mm
15:42 24.9 °C 6.6 °C 1013.8 hPa SW 11.1 km/h 11.1 km/h 31 % 0.0 mm
15:47 25.4 °C 6.6 °C 1013.8 hPa West 12.2 km/h 12.2 km/h 30 % 0.0 mm
15:52 25.2 °C 5.9 °C 1013.8 hPa WSW 13.0 km/h 13.0 km/h 29 % 0.0 mm
15:57 25.1 °C 5.8 °C 1013.8 hPa West 13.0 km/h 13.0 km/h 29 % 0.0 mm
16:02 25.2 °C 5.9 °C 1013.8 hPa WSW 11.1 km/h 11.1 km/h 29 % 0.0 mm
16:07 25.7 °C 6.3 °C 1013.8 hPa WSW 9.3 km/h 9.3 km/h 29 % 0.0 mm
16:12 25.3 °C 6.0 °C 1014.8 hPa West 13.0 km/h 13.0 km/h 29 % 0.0 mm
16:14 25.3 °C 6.0 °C 1014.8 hPa SW 9.3 km/h 9.3 km/h 29 % 0.0 mm
16:19 25.6 °C 6.2 °C 1014.8 hPa SW 14.8 km/h 14.8 km/h 29 % 0.0 mm
16:24 25.4 °C 5.6 °C 1014.8 hPa WSW 11.4 km/h 11.4 km/h 28 % 0.0 mm
16:29 25.4 °C 5.6 °C 1014.8 hPa SW 11.1 km/h 11.1 km/h 28 % 0.0 mm
16:34 25.1 °C 5.3 °C 1014.8 hPa West 25.9 km/h 25.9 km/h 28 % 0.0 mm
16:39 25.3 °C 4.9 °C 1014.8 hPa West 16.7 km/h 16.7 km/h 27 % 0.0 mm
16:44 25.1 °C 4.8 °C 1014.8 hPa WNW 11.1 km/h 11.1 km/h 27 % 0.0 mm
16:49 24.9 °C 5.1 °C 1014.8 hPa West 13.0 km/h 13.0 km/h 28 % 0.0 mm
16:54 25.4 °C 5.1 °C 1014.8 hPa WNW 5.6 km/h 5.8 km/h 27 % 0.0 mm
16:59 25.6 °C 5.2 °C 1014.8 hPa WSW 11.1 km/h 11.1 km/h 27 % 0.0 mm
17:04 25.3 °C 4.4 °C 1014.8 hPa SW 14.8 km/h 14.8 km/h 26 % 0.0 mm
17:09 25.3 °C 4.4 °C 1014.8 hPa West 11.1 km/h 11.1 km/h 26 % 0.0 mm
17:14 25.6 °C 4.7 °C 1014.8 hPa SSW 9.3 km/h 9.3 km/h 26 % 0.0 mm
17:19 25.6 °C 4.1 °C 1014.8 hPa WSW 18.5 km/h 18.5 km/h 25 % 0.0 mm
17:24 25.6 °C 4.1 °C 1014.8 hPa WSW 9.3 km/h 9.3 km/h 25 % 0.0 mm
17:29 25.7 °C 4.7 °C 1013.8 hPa SW 9.3 km/h 9.3 km/h 26 % 0.0 mm
17:34 25.5 °C 4.0 °C 1013.8 hPa WSW 9.3 km/h 9.3 km/h 25 % 0.0 mm
17:39 25.9 °C 4.3 °C 1013.8 hPa WSW 9.3 km/h 9.3 km/h 25 % 0.0 mm
17:44 25.6 °C 3.5 °C 1014.8 hPa West 14.8 km/h 14.8 km/h 24 % 0.0 mm
17:50 25.5 °C 2.8 °C 1014.8 hPa WSW 8.0 km/h 19.3 km/h 23 % 0.0 mm
17:55 25.6 °C 3.5 °C 1014.8 hPa WSW 4.8 km/h 11.3 km/h 24 % 0.0 mm
18:00 25.6 °C 3.5 °C 1014.8 hPa WNW 11.1 km/h 11.1 km/h 24 % 0.0 mm
18:05 25.3 °C 2.7 °C 1014.8 hPa WSW 18.5 km/h 18.5 km/h 23 % 0.0 mm
18:10 25.1 °C 2.5 °C 1014.8 hPa NNW 13.0 km/h 13.0 km/h 23 % 0.0 mm
18:15 25.1 °C 2.5 °C 1014.8 hPa West 11.1 km/h 11.1 km/h 23 % 0.0 mm
18:20 25.0 °C 1.8 °C 1014.8 hPa West 11.3 km/h 16.1 km/h 22 % 0.0 mm
18:25 25.3 °C 2.7 °C 1014.8 hPa NNW 7.4 km/h 7.4 km/h 23 % 0.0 mm
18:30 25.2 °C 2.6 °C 1014.8 hPa West 11.4 km/h 11.4 km/h 23 % 0.0 mm
18:35 25.1 °C 2.5 °C 1014.8 hPa West 16.7 km/h 16.7 km/h 23 % 0.0 mm
18:40 24.9 °C 2.3 °C 1014.8 hPa SW 7.4 km/h 9.5 km/h 23 % 0.0 mm
18:45 25.0 °C 2.4 °C 1014.8 hPa West 5.6 km/h 5.6 km/h 23 % 0.0 mm
18:50 24.9 °C 3.5 °C 1014.8 hPa NNW 9.5 km/h 9.5 km/h 25 % 0.0 mm
18:55 24.8 °C 2.8 °C 1014.8 hPa SW 14.8 km/h 14.8 km/h 24 % 0.0 mm
19:00 24.5 °C 2.0 °C 1015.8 hPa WSW 8.0 km/h 16.1 km/h 23 % 0.0 mm
19:05 24.3 °C 1.2 °C 1015.8 hPa SW 13.0 km/h 13.0 km/h 22 % 0.0 mm
19:10 24.3 °C 1.8 °C 1015.8 hPa SSW 9.3 km/h 9.3 km/h 23 % 0.0 mm
19:15 24.2 °C 1.7 °C 1015.8 hPa WSW 9.3 km/h 9.3 km/h 23 % 0.0 mm
19:20 24.2 °C 1.7 °C 1015.8 hPa West 9.3 km/h 9.3 km/h 23 % 0.0 mm
19:25 24.1 °C 2.2 °C 1015.8 hPa WSW 4.8 km/h 11.3 km/h 24 % 0.0 mm
19:30 23.8 °C 2.0 °C 1015.8 hPa West 9.7 km/h 9.7 km/h 24 % 0.0 mm
19:35 23.6 °C 1.8 °C 1015.8 hPa SW 7.4 km/h 7.4 km/h 24 % 0.0 mm
19:40 23.6 °C 1.8 °C 1015.8 hPa SW 9.3 km/h 9.3 km/h 24 % 0.0 mm
19:45 23.3 °C 1.0 °C 1014.8 hPa WSW 7.4 km/h 7.4 km/h 23 % 0.0 mm
19:50 23.2 °C 1.5 °C 1014.8 hPa West 3.2 km/h 4.8 km/h 24 % 0.0 mm
19:55 23.1 °C 1.4 °C 1014.8 hPa WSW 1.6 km/h 4.8 km/h 24 % 0.0 mm
20:00 22.9 °C 1.3 °C 1015.8 hPa SSW 1.6 km/h 6.4 km/h 24 % 0.0 mm
20:05 20.9 °C 3.6 °C 1015.8 hPa ESE 12.9 km/h 19.3 km/h 32 % 0.0 mm
20:10 20.1 °C 4.2 °C 1015.8 hPa ESE 8.0 km/h 19.3 km/h 35 % 0.0 mm
20:15 19.6 °C 5.6 °C 1016.8 hPa NNE 18.5 km/h 18.5 km/h 40 % 0.0 mm
20:20 19.1 °C 6.2 °C 1016.8 hPa NE 18.5 km/h 18.5 km/h 43 % 0.0 mm
20:25 18.9 °C 7.0 °C 1016.8 hPa ENE 20.4 km/h 20.4 km/h 46 % 0.0 mm
20:30 18.7 °C 7.2 °C 1017.8 hPa East 14.8 km/h 14.8 km/h 47 % 0.0 mm
20:35 18.4 °C 7.5 °C 1017.8 hPa East 13.0 km/h 13.0 km/h 49 % 0.0 mm
20:40 18.2 °C 7.3 °C 1017.8 hPa East 8.0 km/h 19.3 km/h 49 % 0.0 mm
20:45 17.9 °C 7.3 °C 1017.8 hPa ENE 9.3 km/h 9.3 km/h 50 % 0.0 mm
20:50 17.8 °C 7.2 °C 1017.8 hPa East 7.4 km/h 7.4 km/h 50 % 0.0 mm
20:55 17.5 °C 7.2 °C 1017.8 hPa ENE 12.2 km/h 12.2 km/h 51 % 0.0 mm
21:00 17.4 °C 7.2 °C 1017.8 hPa ENE 11.3 km/h 17.7 km/h 51 % 0.0 mm
21:05 17.2 °C 6.9 °C 1017.8 hPa East 8.0 km/h 16.1 km/h 51 % 0.0 mm
21:10 17.1 °C 7.2 °C 1017.8 hPa East 13.0 km/h 13.0 km/h 52 % 0.0 mm
21:15 17.0 °C 7.1 °C 1017.8 hPa NNE 13.0 km/h 13.0 km/h 52 % 0.0 mm
21:20 16.9 °C 7.3 °C 1017.8 hPa East 11.1 km/h 11.1 km/h 53 % 0.0 mm
21:25 16.7 °C 7.3 °C 1017.8 hPa ESE 9.3 km/h 9.3 km/h 54 % 0.0 mm
21:30 16.6 °C 7.2 °C 1017.8 hPa North 7.4 km/h 7.4 km/h 54 % 0.0 mm
21:35 16.6 °C 7.2 °C 1017.8 hPa NNE 4.8 km/h 8.0 km/h 54 % 0.0 mm
21:40 16.5 °C 7.2 °C 1017.8 hPa East 9.5 km/h 9.5 km/h 54 % 0.0 mm
21:45 16.3 °C 6.9 °C 1018.8 hPa NNE 12.2 km/h 12.2 km/h 54 % 0.0 mm
21:50 16.3 °C 7.2 °C 1018.8 hPa NE 8.0 km/h 12.9 km/h 55 % 0.0 mm
21:55 16.1 °C 7.3 °C 1018.8 hPa ENE 9.7 km/h 9.7 km/h 56 % 0.0 mm
22:00 16.1 °C 7.3 °C 1018.8 hPa ENE 4.8 km/h 9.7 km/h 56 % 0.0 mm
22:05 16.0 °C 7.2 °C 1018.8 hPa NNE 9.3 km/h 9.3 km/h 56 % 0.0 mm
22:10 16.0 °C 7.2 °C 1018.8 hPa ENE 7.6 km/h 7.6 km/h 56 % 0.0 mm
22:15 16.0 °C 7.5 °C 1018.8 hPa NE 9.3 km/h 9.3 km/h 57 % 0.0 mm
22:20 15.9 °C 7.4 °C 1018.8 hPa ENE 7.4 km/h 7.4 km/h 57 % 0.0 mm
22:25 15.7 °C 7.4 °C 1018.8 hPa ENE 9.3 km/h 9.3 km/h 58 % 0.0 mm
22:30 15.7 °C 7.4 °C 1018.8 hPa ENE 3.2 km/h 9.7 km/h 58 % 0.0 mm
22:35 15.6 °C 7.3 °C 1018.8 hPa NE 7.4 km/h 7.4 km/h 58 % 0.0 mm
22:40 15.5 °C 7.5 °C 1018.8 hPa NNE 5.6 km/h 5.6 km/h 59 % 0.0 mm
22:45 15.4 °C 7.4 °C 1018.8 hPa East 5.0 km/h 5.0 km/h 59 % 0.0 mm
22:50 15.4 °C 7.4 °C 1018.8 hPa ENE 3.2 km/h 4.8 km/h 59 % 0.0 mm
22:55 15.4 °C 7.4 °C 1018.8 hPa ENE 3.2 km/h 8.0 km/h 59 % 0.0 mm
23:00 15.4 °C 7.4 °C 1019.9 hPa SE 3.7 km/h 3.7 km/h 59 % 0.0 mm
23:05 15.3 °C 7.3 °C 1019.9 hPa East 1.6 km/h 4.8 km/h 59 % 0.0 mm
23:10 15.3 °C 7.6 °C 1019.9 hPa NE 5.6 km/h 5.6 km/h 60 % 0.0 mm
23:15 15.2 °C 7.7 °C 1019.9 hPa East 7.4 km/h 7.4 km/h 61 % 0.0 mm
23:20 15.2 °C 7.9 °C 1019.9 hPa ESE 4.2 km/h 4.2 km/h 62 % 0.0 mm
23:25 15.1 °C 7.6 °C 1019.9 hPa East 5.6 km/h 5.6 km/h 61 % 0.0 mm
23:30 15.0 °C 7.6 °C 1019.9 hPa East 3.9 km/h 3.9 km/h 61 % 0.0 mm
23:35 11.8 °C 6.1 °C 1019.9 hPa North 1.6 km/h 3.2 km/h 68 % 0.0 mm
23:36 14.9 °C 7.4 °C 1019.9 hPa NNE 3.7 km/h 3.7 km/h 61 % 0.0 mm
23:41 14.8 °C 7.3 °C 1018.8 hPa ENE 4.7 km/h 4.7 km/h 61 % 0.0 mm
23:45 11.7 °C 6.0 °C 1019.9 hPa Calm   1.6 km/h 68 % 0.0 mm
23:46 14.8 °C 7.3 °C 1018.8 hPa ENE 7.4 km/h 7.4 km/h 61 % 0.0 mm
23:51 14.8 °C 7.3 °C 1018.8 hPa ENE 3.7 km/h 3.7 km/h 61 % 0.0 mm
23:55 11.6 °C 6.1 °C 1018.8 hPa Calm   1.6 km/h 69 % 0.0 mm
23:56 14.8 °C 7.6 °C 1019.9 hPa NE 5.6 km/h 5.6 km/h 62 % 0.0 mm
Meteo Sesrovires
Elogis d' Weather Underground - 3.5 mb

Guio original per  Jim McMurry - jmcmurry@mwt.net Adaptat per a la plantilla per  Wim van der Kuil - Leuven-Template.eu

Trobareu la nostra informacio del temps tambe a:

Weather Underground

AWEKAS